Forside
METAR-TAF:

METAR-TAF

Lufthavne :

Blytheville, Arkansas, USA

Breddekreds: 35-58N, længdekreds: 089-57W, højde: 78 m

Aktuelle vejr

Denne rapport blev lavet for 1 time og 20 minutter siden, kl. 20:50 UTC
Vind stille
Temperatur 14°C
Fugtighed 47%
Tryk 1020 hPa
Sigt: 16.1 km
skyfri

METAR: KBYH 162050Z 00000KT 10SM SKC 14/03 A3011

Tid: 16:10 (22:10 UTC)


TAF: fraværende

Vejrobservationer og prognoser fra mere end 4000 lufthavne (METAR og TAF).

De gule og røde prikker repræsenterer de meteorologiske stationer.

Flyt musen over at se navnet på stationen.

Så klik over at se vejr observationer og prognoser.

At skifte det kort: Klik på de grønne knapper med et sort kors for at zoome ind; på den grønne knap med en bindestreg for at zoome ud; eller på de grønne pile for tilstødende kort.


METAR-TAF: